createdAt,value
2023-02-21T00:01:03.918Z,0.98
2023-02-21T00:05:24.783Z,0.90
2023-02-21T00:09:46.776Z,0.90
2023-02-21T00:14:07.164Z,0.90
2023-02-21T00:18:27.934Z,0.90
2023-02-21T00:22:48.821Z,0.80
2023-02-21T00:27:10.851Z,0.80
2023-02-21T00:31:31.180Z,0.93
2023-02-21T00:35:51.467Z,1.00
2023-02-21T00:40:11.823Z,0.90
2023-02-21T00:44:33.672Z,1.10
2023-02-21T00:48:54.033Z,1.02
2023-02-21T00:53:14.754Z,1.05
2023-02-21T00:57:35.086Z,1.25
2023-02-21T01:01:56.927Z,0.90
2023-02-21T01:06:17.737Z,1.10
2023-02-21T01:10:40.728Z,1.00
2023-02-21T01:15:00.932Z,1.30
2023-02-21T01:19:23.141Z,1.10
2023-02-21T01:23:44.704Z,1.00
2023-02-21T01:28:05.104Z,1.20
2023-02-21T01:32:25.394Z,1.17
2023-02-21T01:36:47.556Z,1.15
2023-02-21T01:41:07.968Z,1.10
2023-02-21T01:45:58.418Z,1.23
2023-02-21T01:50:20.823Z,0.82
2023-02-21T01:54:46.148Z,1.02
2023-02-21T01:59:10.896Z,1.10
2023-02-21T02:03:37.210Z,1.00
2023-02-21T02:07:57.589Z,1.08
2023-02-21T02:12:24.185Z,0.85
2023-02-21T02:16:37.195Z,0.90
2023-02-21T02:21:28.736Z,0.90
2023-02-21T02:25:53.838Z,1.00
2023-02-21T02:30:44.451Z,0.80
2023-02-21T02:34:56.379Z,0.85
2023-02-21T02:39:06.505Z,1.17
2023-02-21T02:43:18.248Z,1.00
2023-02-21T02:47:26.482Z,0.80
2023-02-21T02:51:33.566Z,0.90
2023-02-21T02:55:42.864Z,1.00
2023-02-21T02:59:48.131Z,1.00
2023-02-21T03:04:07.165Z,0.80
2023-02-21T03:08:20.949Z,1.17
2023-02-21T03:12:34.171Z,1.00
2023-02-21T03:16:43.653Z,0.90
2023-02-21T03:20:51.860Z,1.00
2023-02-21T03:24:57.146Z,1.20
2023-02-21T03:29:00.831Z,1.00
2023-02-21T03:33:05.660Z,1.10
2023-02-21T03:37:11.448Z,0.90
2023-02-21T03:41:17.647Z,0.80
2023-02-21T03:45:20.950Z,0.90
2023-02-21T03:49:53.251Z,1.00
2023-02-21T03:53:56.892Z,0.98
2023-02-21T03:58:09.104Z,1.10
2023-02-21T04:02:13.928Z,1.00
2023-02-21T04:06:17.237Z,1.10
2023-02-21T04:10:20.409Z,1.17
2023-02-21T04:14:25.328Z,1.08
2023-02-21T04:18:28.565Z,1.10
2023-02-21T04:22:35.016Z,0.93
2023-02-21T04:26:38.149Z,1.30
2023-02-21T04:30:43.397Z,1.20
2023-02-21T04:34:46.514Z,1.23
2023-02-21T04:38:50.470Z,1.27
2023-02-21T04:42:53.498Z,1.10
2023-02-21T04:46:58.032Z,1.10
2023-02-21T04:51:14.807Z,1.20
2023-02-21T04:55:18.343Z,1.08
2023-02-21T04:59:21.633Z,1.25
2023-02-21T05:03:26.112Z,1.00
2023-02-21T05:07:29.086Z,1.23
2023-02-21T05:11:35.786Z,1.40
2023-02-21T05:15:38.800Z,1.10
2023-02-21T05:19:43.220Z,1.10
2023-02-21T05:23:55.678Z,1.15
2023-02-21T05:27:58.873Z,1.25
2023-02-21T05:32:01.912Z,1.20
2023-02-21T05:36:07.171Z,1.02
2023-02-21T05:40:13.066Z,1.00
2023-02-21T05:44:16.424Z,1.40
2023-02-21T05:48:19.436Z,1.17
2023-02-21T05:52:23.921Z,1.50
2023-02-21T05:56:26.937Z,1.20
2023-02-21T06:00:31.711Z,1.02
2023-02-21T06:04:34.776Z,1.33
2023-02-21T06:08:45.863Z,1.30
2023-02-21T06:12:48.984Z,1.20
2023-02-21T06:16:52.035Z,1.30
2023-02-21T06:20:55.076Z,1.08
2023-02-21T06:24:59.563Z,1.10
2023-02-21T06:29:02.536Z,1.20
2023-02-21T06:33:05.572Z,1.27
2023-02-21T06:37:08.523Z,1.50
2023-02-21T06:41:16.681Z,1.15
2023-02-21T06:45:19.903Z,1.17
2023-02-21T06:49:22.901Z,1.40
2023-02-21T06:53:25.898Z,1.23
2023-02-21T06:57:30.250Z,1.15
2023-02-21T07:01:33.837Z,1.35
2023-02-21T07:05:38.625Z,1.42
2023-02-21T07:09:41.682Z,1.35
2023-02-21T07:13:51.565Z,1.50
2023-02-21T07:17:54.585Z,1.40
2023-02-21T07:21:57.564Z,1.45
2023-02-21T07:26:00.671Z,1.27
2023-02-21T07:30:05.792Z,1.30
2023-02-21T07:34:08.881Z,1.40
2023-02-21T07:38:11.926Z,1.60
2023-02-21T07:42:14.954Z,1.48
2023-02-21T07:46:28.773Z,1.13
2023-02-21T07:50:31.902Z,1.30
2023-02-21T07:54:35.031Z,1.60
2023-02-21T07:58:38.151Z,1.30
2023-02-21T08:02:42.765Z,1.63
2023-02-21T08:06:45.732Z,1.30
2023-02-21T08:10:50.016Z,1.38
2023-02-21T08:14:53.131Z,1.50
2023-02-21T08:18:57.464Z,1.38
2023-02-21T08:23:24.517Z,1.42
2023-02-21T08:27:28.087Z,1.30
2023-02-21T08:31:31.309Z,1.63
2023-02-21T08:35:36.031Z,1.17
2023-02-21T08:39:39.005Z,1.50
2023-02-21T08:43:42.030Z,1.38
2023-02-21T08:47:45.222Z,1.60
2023-02-21T08:51:49.669Z,1.50
2023-02-21T08:55:52.634Z,1.67
2023-02-21T08:59:56.142Z,1.20
2023-02-21T09:03:59.396Z,1.70
2023-02-21T09:08:05.390Z,1.40
2023-02-21T09:12:09.476Z,1.77
2023-02-21T09:16:12.486Z,1.65
2023-02-21T09:20:19.577Z,1.65
2023-02-21T09:24:25.354Z,1.88
2023-02-21T09:28:29.400Z,1.58
2023-02-21T09:32:32.450Z,2.22
2023-02-21T09:36:37.047Z,1.70
2023-02-21T09:40:45.307Z,1.70
2023-02-21T09:44:49.439Z,1.83
2023-02-21T09:48:53.397Z,2.00
2023-02-21T09:52:58.220Z,1.70
2023-02-21T09:57:05.369Z,1.80
2023-02-21T10:01:21.785Z,1.65
2023-02-21T10:05:39.903Z,1.88
2023-02-21T10:09:51.034Z,1.80
2023-02-21T10:13:59.953Z,1.60
2023-02-21T10:18:09.628Z,1.70
2023-02-21T10:22:20.009Z,1.77
2023-02-21T10:26:27.399Z,1.83
2023-02-21T10:30:36.378Z,1.70
2023-02-21T10:34:39.403Z,1.60
2023-02-21T10:38:48.024Z,1.60
2023-02-21T10:42:55.460Z,1.65
2023-02-21T10:47:05.613Z,2.00
2023-02-21T10:51:11.772Z,1.65
2023-02-21T10:55:31.896Z,1.85
2023-02-21T10:59:38.205Z,1.55
2023-02-21T11:03:47.416Z,1.70
2023-02-21T11:08:00.465Z,1.73
2023-02-21T11:12:07.254Z,1.90
2023-02-21T11:16:13.634Z,1.85
2023-02-21T11:20:20.673Z,1.60
2023-02-21T11:24:23.730Z,1.75
2023-02-21T11:28:27.605Z,1.70
2023-02-21T11:32:36.455Z,1.80
2023-02-21T11:36:43.504Z,1.65
2023-02-21T11:40:51.808Z,1.30
2023-02-21T11:45:12.609Z,1.58
2023-02-21T11:49:23.762Z,2.00
2023-02-21T11:53:32.587Z,1.80
2023-02-21T11:57:45.904Z,1.58
2023-02-21T12:02:00.513Z,1.48
2023-02-21T12:06:09.962Z,1.27
2023-02-21T12:10:34.966Z,1.17
2023-02-21T12:14:47.510Z,1.13
2023-02-21T12:19:08.574Z,1.40
2023-02-21T12:23:20.071Z,1.33
2023-02-21T12:27:35.154Z,1.17
2023-02-21T12:31:52.892Z,1.30
2023-02-21T12:36:15.695Z,1.15
2023-02-21T12:40:26.041Z,1.10
2023-02-21T12:44:38.217Z,1.00
2023-02-21T12:48:47.487Z,0.90
2023-02-21T12:53:02.794Z,0.98
2023-02-21T12:57:11.004Z,1.10
2023-02-21T13:01:21.376Z,1.10
2023-02-21T13:05:33.187Z,1.00
2023-02-21T13:09:39.151Z,1.08
2023-02-21T13:13:42.384Z,0.82
2023-02-21T13:17:53.409Z,0.93
2023-02-21T13:22:28.598Z,1.00
2023-02-21T13:26:50.488Z,0.88
2023-02-21T13:30:56.791Z,1.20
2023-02-21T13:35:06.227Z,1.00
2023-02-21T13:39:14.520Z,0.95
2023-02-21T13:43:24.791Z,0.90
2023-02-21T13:47:27.895Z,0.60
2023-02-21T13:51:49.295Z,0.80
2023-02-21T13:56:20.520Z,0.82
2023-02-21T14:00:49.730Z,0.80
2023-02-21T14:05:13.694Z,0.98
2023-02-21T14:09:19.475Z,0.90
2023-02-21T14:13:28.866Z,0.80
2023-02-21T14:17:31.964Z,0.75
2023-02-21T14:21:41.416Z,0.80
2023-02-21T14:25:58.407Z,0.75
2023-02-21T14:30:28.590Z,0.50
2023-02-21T14:34:39.390Z,0.75
2023-02-21T14:38:45.603Z,0.60
2023-02-21T14:43:02.584Z,0.60
2023-02-21T14:47:35.208Z,0.90
2023-02-21T14:52:13.944Z,0.60
2023-02-21T14:56:40.661Z,0.93
2023-02-21T15:01:00.412Z,0.90
2023-02-21T15:05:15.548Z,0.80
2023-02-21T15:09:21.252Z,0.93
2023-02-21T15:13:26.059Z,0.80
2023-02-21T15:17:31.103Z,0.90
2023-02-21T15:21:34.328Z,0.88
2023-02-21T15:25:37.950Z,0.80
2023-02-21T15:29:42.097Z,0.77
2023-02-21T15:33:46.597Z,1.08
2023-02-21T15:37:50.045Z,0.70
2023-02-21T15:41:54.208Z,0.70
2023-02-21T15:46:01.491Z,0.90
2023-02-21T15:50:10.172Z,0.70
2023-02-21T15:54:25.628Z,0.90
2023-02-21T15:58:29.269Z,0.70
2023-02-21T16:02:32.590Z,0.75
2023-02-21T16:06:37.158Z,0.82
2023-02-21T16:10:41.432Z,0.65
2023-02-21T16:14:46.779Z,0.90
2023-02-21T16:18:57.834Z,0.98
2023-02-21T16:23:25.637Z,1.00
2023-02-21T16:27:28.732Z,1.23
2023-02-21T16:31:34.043Z,1.20
2023-02-21T16:35:37.073Z,1.08
2023-02-21T16:39:42.247Z,0.80
2023-02-21T16:43:45.301Z,0.80
2023-02-21T16:47:49.947Z,1.00
2023-02-21T16:51:53.037Z,1.25
2023-02-21T16:55:58.932Z,1.23
2023-02-21T17:00:01.981Z,1.30
2023-02-21T17:04:07.017Z,1.13
2023-02-21T17:08:10.931Z,0.90
2023-02-21T17:12:15.472Z,1.15
2023-02-21T17:16:18.725Z,1.00
2023-02-21T17:20:23.247Z,1.10
2023-02-21T17:24:26.249Z,1.13
2023-02-21T17:28:31.136Z,1.00
2023-02-21T17:32:34.270Z,1.35
2023-02-21T17:36:37.327Z,1.33
2023-02-21T17:40:40.377Z,1.20
2023-02-21T17:44:47.367Z,1.10
2023-02-21T17:48:51.000Z,1.48
2023-02-21T17:52:54.265Z,1.48
2023-02-21T17:56:57.380Z,1.45
2023-02-21T18:01:01.842Z,1.45
2023-02-21T18:05:05.707Z,1.50
2023-02-21T18:09:09.765Z,1.30
2023-02-21T18:13:13.128Z,1.50
2023-02-21T18:17:18.515Z,1.23
2023-02-21T18:21:23.175Z,1.17
2023-02-21T18:25:26.952Z,1.13
2023-02-21T18:29:31.478Z,1.27
2023-02-21T18:33:35.981Z,1.23
2023-02-21T18:37:39.041Z,1.42
2023-02-21T18:41:42.037Z,1.50
2023-02-21T18:45:45.241Z,1.30
2023-02-21T18:49:50.553Z,1.27
2023-02-21T18:53:53.603Z,1.80
2023-02-21T18:57:56.997Z,1.50
2023-02-21T19:02:00.389Z,1.70
2023-02-21T19:06:06.371Z,1.83
2023-02-21T19:10:11.055Z,2.05
2023-02-21T19:14:14.091Z,2.00
2023-02-21T19:18:18.062Z,1.75
2023-02-21T19:22:22.786Z,1.77
2023-02-21T19:26:29.092Z,1.70
2023-02-21T19:30:34.730Z,1.80
2023-02-21T19:34:37.995Z,2.10
2023-02-21T19:38:44.390Z,1.95
2023-02-21T19:42:48.519Z,2.20
2023-02-21T19:46:51.568Z,2.03
2023-02-21T19:50:54.721Z,2.08
2023-02-21T19:54:59.172Z,2.45
2023-02-21T19:59:02.250Z,2.25
2023-02-21T20:03:05.600Z,2.30
2023-02-21T20:07:08.883Z,2.50
2023-02-21T20:11:14.697Z,1.92
2023-02-21T20:15:18.179Z,2.15
2023-02-21T20:19:21.738Z,1.90
2023-02-21T20:23:24.780Z,2.38
2023-02-21T20:27:29.466Z,2.25
2023-02-21T20:31:35.749Z,2.30
2023-02-21T20:35:38.835Z,2.25
2023-02-21T20:39:41.899Z,2.08
2023-02-21T20:43:46.303Z,2.03
2023-02-21T20:47:49.310Z,1.80
2023-02-21T20:51:52.415Z,2.00
2023-02-21T20:55:55.555Z,1.88
2023-02-21T20:59:59.960Z,1.73
2023-02-21T21:04:05.054Z,1.92
2023-02-21T21:08:09.017Z,1.70
2023-02-21T21:12:15.012Z,1.63
2023-02-21T21:16:20.308Z,1.60
2023-02-21T21:20:27.028Z,1.67
2023-02-21T21:24:32.024Z,1.50
2023-02-21T21:28:35.264Z,1.63
2023-02-21T21:32:41.628Z,1.70
2023-02-21T21:36:46.278Z,1.60
2023-02-21T21:40:49.583Z,1.40
2023-02-21T21:44:54.729Z,1.60
2023-02-21T21:49:00.108Z,1.48
2023-02-21T21:53:03.203Z,1.60
2023-02-21T21:57:06.491Z,1.65
2023-02-21T22:01:09.857Z,1.40
2023-02-21T22:05:15.109Z,1.40
2023-02-21T22:09:18.303Z,1.50
2023-02-21T22:13:21.866Z,1.63
2023-02-21T22:17:25.079Z,1.33
2023-02-21T22:21:29.501Z,1.40
2023-02-21T22:25:36.850Z,1.60
2023-02-21T22:29:39.838Z,1.73
2023-02-21T22:33:43.377Z,1.33
2023-02-21T22:37:50.562Z,1.83
2023-02-21T22:41:54.024Z,1.40
2023-02-21T22:45:58.446Z,1.80
2023-02-21T22:50:01.720Z,1.50
2023-02-21T22:54:06.471Z,1.48
2023-02-21T22:58:10.690Z,1.80
2023-02-21T23:02:16.810Z,1.40
2023-02-21T23:06:20.396Z,1.73
2023-02-21T23:10:26.857Z,1.85
2023-02-21T23:14:31.534Z,1.42
2023-02-21T23:18:34.925Z,1.90
2023-02-21T23:22:37.966Z,1.60
2023-02-21T23:26:45.080Z,1.65
2023-02-21T23:30:49.645Z,1.60
2023-02-21T23:34:52.780Z,1.65
2023-02-21T23:38:58.106Z,1.50
2023-02-21T23:43:02.566Z,1.63
2023-02-21T23:47:06.414Z,1.63
2023-02-21T23:51:10.396Z,1.70
2023-02-21T23:55:13.663Z,1.88
2023-02-21T23:59:18.112Z,1.48
